createdAt,value
2022-10-01T00:01:19.670Z,8.89
2022-10-01T00:04:22.106Z,8.91
2022-10-01T00:07:23.985Z,8.89
2022-10-01T00:10:26.667Z,8.88
2022-10-01T00:13:30.485Z,8.86
2022-10-01T00:16:32.329Z,8.88
2022-10-01T00:19:34.106Z,8.89
2022-10-01T00:22:36.539Z,8.88
2022-10-01T00:25:38.941Z,8.89
2022-10-01T00:28:42.278Z,8.88
2022-10-01T00:31:44.088Z,8.85
2022-10-01T00:34:45.898Z,8.84
2022-10-01T00:37:50.523Z,8.84
2022-10-01T00:40:53.219Z,8.81
2022-10-01T00:43:59.294Z,8.73
2022-10-01T00:47:19.418Z,8.71
2022-10-01T00:50:30.392Z,8.69
2022-10-01T00:53:32.826Z,8.67
2022-10-01T00:56:34.620Z,8.62
2022-10-01T00:59:36.886Z,8.59
2022-10-01T01:02:39.257Z,8.55
2022-10-01T01:05:41.165Z,8.55
2022-10-01T01:08:43.563Z,8.50
2022-10-01T01:11:51.374Z,8.49
2022-10-01T01:15:08.180Z,8.46
2022-10-01T01:18:35.806Z,8.45
2022-10-01T01:21:44.944Z,8.44
2022-10-01T01:24:51.026Z,8.41
2022-10-01T01:28:14.040Z,8.40
2022-10-01T01:31:25.092Z,8.34
2022-10-01T01:34:31.358Z,8.31
2022-10-01T01:37:39.075Z,8.28
2022-10-01T01:40:44.538Z,8.19
2022-10-01T01:43:51.338Z,8.16
2022-10-01T01:46:56.477Z,8.09
2022-10-01T01:49:59.592Z,8.08
2022-10-01T01:53:02.168Z,8.10
2022-10-01T01:56:05.646Z,8.12
2022-10-01T01:59:08.621Z,8.11
2022-10-01T02:02:35.482Z,8.06
2022-10-01T02:05:48.709Z,8.04
2022-10-01T02:09:05.513Z,8.07
2022-10-01T02:12:30.309Z,7.97
2022-10-01T02:15:46.915Z,7.99
2022-10-01T02:19:12.063Z,8.02
2022-10-01T02:22:21.493Z,8.02
2022-10-01T02:25:27.053Z,8.01
2022-10-01T02:28:33.651Z,8.01
2022-10-01T02:31:35.866Z,8.00
2022-10-01T02:34:40.144Z,8.01
2022-10-01T02:37:44.536Z,8.03
2022-10-01T02:40:49.824Z,8.05
2022-10-01T02:43:57.096Z,8.08
2022-10-01T02:47:12.055Z,8.14
2022-10-01T02:50:14.908Z,8.17
2022-10-01T02:53:31.492Z,8.18
2022-10-01T02:56:56.044Z,8.24
2022-10-01T03:00:21.353Z,8.28
2022-10-01T03:03:26.097Z,8.27
2022-10-01T03:06:28.071Z,8.26
2022-10-01T03:09:34.530Z,8.21
2022-10-01T03:12:36.231Z,8.16
2022-10-01T03:15:37.905Z,8.17
2022-10-01T03:18:39.643Z,8.10
2022-10-01T03:21:41.439Z,8.13
2022-10-01T03:24:43.114Z,8.11
2022-10-01T03:27:46.152Z,8.15
2022-10-01T03:30:47.934Z,8.14
2022-10-01T03:33:49.671Z,8.15
2022-10-01T03:36:54.009Z,8.17
2022-10-01T03:39:55.907Z,8.20
2022-10-01T03:42:57.566Z,8.17
2022-10-01T03:45:59.340Z,8.18
2022-10-01T03:49:01.299Z,8.19
2022-10-01T03:52:06.550Z,8.18
2022-10-01T03:55:08.553Z,8.19
2022-10-01T03:58:10.263Z,8.20
2022-10-01T04:01:12.071Z,8.14
2022-10-01T04:04:14.930Z,8.14
2022-10-01T04:07:16.636Z,8.14
2022-10-01T04:10:18.411Z,8.15
2022-10-01T04:13:20.253Z,8.13
2022-10-01T04:16:22.037Z,8.15
2022-10-01T04:19:23.772Z,8.15
2022-10-01T04:22:25.511Z,8.13
2022-10-01T04:25:28.284Z,8.11
2022-10-01T04:28:31.542Z,8.10
2022-10-01T04:31:35.914Z,8.06
2022-10-01T04:34:52.972Z,8.06
2022-10-01T04:38:01.949Z,8.09
2022-10-01T04:41:03.762Z,8.03
2022-10-01T04:44:05.700Z,8.04
2022-10-01T04:47:08.595Z,8.01
2022-10-01T04:50:10.411Z,8.04
2022-10-01T04:53:12.124Z,7.98
2022-10-01T04:56:13.827Z,8.01
2022-10-01T04:59:16.003Z,7.99
2022-10-01T05:02:18.397Z,8.03
2022-10-01T05:05:22.767Z,8.06
2022-10-01T05:08:24.654Z,8.06
2022-10-01T05:11:26.448Z,8.08
2022-10-01T05:14:28.149Z,8.10
2022-10-01T05:17:34.195Z,8.15
2022-10-01T05:20:37.848Z,8.22
2022-10-01T05:23:39.729Z,8.28
2022-10-01T05:26:41.435Z,8.33
2022-10-01T05:29:43.384Z,8.38
2022-10-01T05:32:55.376Z,8.46
2022-10-01T05:35:58.404Z,8.56
2022-10-01T05:39:00.067Z,8.64
2022-10-01T05:42:06.495Z,8.66
2022-10-01T05:45:10.164Z,8.67
2022-10-01T05:48:12.880Z,8.70
2022-10-01T05:51:15.228Z,8.74
2022-10-01T05:54:19.615Z,8.74
2022-10-01T05:57:21.497Z,8.74
2022-10-01T06:00:24.248Z,8.76
2022-10-01T06:03:28.777Z,8.83
2022-10-01T06:06:30.686Z,8.88
2022-10-01T06:09:32.702Z,8.91
2022-10-01T06:12:34.623Z,8.95
2022-10-01T06:15:38.559Z,8.96
2022-10-01T06:18:41.604Z,8.96
2022-10-01T06:21:43.745Z,9.00
2022-10-01T06:24:45.734Z,9.03
2022-10-01T06:27:56.285Z,9.10
2022-10-01T06:31:01.787Z,9.16
2022-10-01T06:34:03.471Z,9.23
2022-10-01T06:37:05.273Z,9.27
2022-10-01T06:40:07.665Z,9.29
2022-10-01T06:43:09.878Z,9.34
2022-10-01T06:46:11.679Z,9.26
2022-10-01T06:49:13.919Z,9.42
2022-10-01T06:52:34.188Z,9.61
2022-10-01T06:55:37.006Z,9.75
2022-10-01T06:58:38.809Z,9.87
2022-10-01T07:01:40.658Z,10.08
2022-10-01T07:04:42.702Z,10.21
2022-10-01T07:07:44.963Z,10.42
2022-10-01T07:10:46.917Z,10.63
2022-10-01T07:13:54.366Z,10.66
2022-10-01T07:16:56.487Z,10.87
2022-10-01T07:19:58.815Z,10.83
2022-10-01T07:23:00.667Z,11.00
2022-10-01T07:26:08.820Z,10.98
2022-10-01T07:29:10.917Z,11.16
2022-10-01T07:32:12.682Z,11.19
2022-10-01T07:35:18.937Z,11.27
2022-10-01T07:38:23.636Z,11.23
2022-10-01T07:41:25.496Z,11.29
2022-10-01T07:44:28.929Z,11.57
2022-10-01T07:47:30.772Z,11.52
2022-10-01T07:50:32.683Z,11.49
2022-10-01T07:53:34.512Z,11.35
2022-10-01T07:56:36.352Z,11.47
2022-10-01T07:59:40.892Z,11.75
2022-10-01T08:02:47.459Z,12.03
2022-10-01T08:05:49.860Z,12.08
2022-10-01T08:08:51.545Z,12.34
2022-10-01T08:11:53.215Z,12.62
2022-10-01T08:14:55.888Z,12.84
2022-10-01T08:18:01.385Z,12.95
2022-10-01T08:21:04.226Z,13.21
2022-10-01T08:24:06.003Z,13.00
2022-10-01T08:27:07.720Z,13.12
2022-10-01T08:30:09.959Z,13.27
2022-10-01T08:33:13.121Z,13.58
2022-10-01T08:36:16.486Z,13.83
2022-10-01T08:39:18.661Z,13.46
2022-10-01T08:42:33.398Z,12.77
2022-10-01T08:45:47.657Z,12.46
2022-10-01T08:48:57.387Z,12.52
2022-10-01T08:52:20.134Z,12.82
2022-10-01T08:55:27.103Z,12.95
2022-10-01T08:58:41.175Z,13.13
2022-10-01T09:01:43.281Z,12.87
2022-10-01T09:04:46.470Z,12.89
2022-10-01T09:08:06.582Z,12.78
2022-10-01T09:11:14.471Z,12.63
2022-10-01T09:14:19.376Z,12.58
2022-10-01T09:17:21.074Z,12.43
2022-10-01T09:20:57.274Z,12.37
2022-10-01T09:24:04.335Z,12.29
2022-10-01T09:27:18.203Z,12.45
2022-10-01T09:30:23.367Z,12.53
2022-10-01T09:33:31.700Z,12.51
2022-10-01T09:36:51.832Z,12.46
2022-10-01T09:40:14.856Z,12.41
2022-10-01T09:43:19.965Z,12.17
2022-10-01T09:46:21.928Z,12.30
2022-10-01T09:49:31.541Z,12.22
2022-10-01T09:52:40.793Z,12.10
2022-10-01T09:55:45.824Z,12.24
2022-10-01T09:58:53.826Z,12.53
2022-10-01T10:02:01.091Z,12.35
2022-10-01T10:05:05.892Z,12.45
2022-10-01T10:08:10.399Z,12.49
2022-10-01T10:11:25.299Z,12.36
2022-10-01T10:14:41.229Z,12.34
2022-10-01T10:17:46.382Z,12.41
2022-10-01T10:20:54.067Z,12.42
2022-10-01T10:24:01.786Z,12.16
2022-10-01T10:27:06.793Z,12.10
2022-10-01T10:30:17.305Z,12.52
2022-10-01T10:33:21.885Z,12.67
2022-10-01T10:36:29.475Z,12.82
2022-10-01T10:39:35.040Z,12.93
2022-10-01T10:42:38.917Z,12.77
2022-10-01T10:45:46.649Z,12.59
2022-10-01T10:48:58.645Z,12.71
2022-10-01T10:52:01.939Z,12.58
2022-10-01T10:55:32.811Z,12.40
2022-10-01T10:58:40.331Z,12.59
2022-10-01T11:01:45.610Z,12.92
2022-10-01T11:04:47.545Z,12.85
2022-10-01T11:07:53.926Z,12.86
2022-10-01T11:11:19.425Z,13.07
2022-10-01T11:14:47.435Z,13.25
2022-10-01T11:17:55.469Z,13.41
2022-10-01T11:21:09.215Z,13.60
2022-10-01T11:24:33.015Z,14.22
2022-10-01T11:27:52.703Z,13.95
2022-10-01T11:31:10.105Z,14.20
2022-10-01T11:34:40.072Z,14.46
2022-10-01T11:37:41.755Z,14.53
2022-10-01T11:40:51.119Z,14.21
2022-10-01T11:43:56.183Z,14.11
2022-10-01T11:47:20.662Z,14.54
2022-10-01T11:50:28.226Z,14.64
2022-10-01T11:53:39.076Z,14.62
2022-10-01T11:57:08.883Z,14.05
2022-10-01T12:00:13.835Z,14.54
2022-10-01T12:03:23.598Z,14.88
2022-10-01T12:06:42.624Z,14.96
2022-10-01T12:10:00.683Z,14.94
2022-10-01T12:13:12.622Z,14.92
2022-10-01T12:16:33.352Z,14.93
2022-10-01T12:19:39.118Z,14.69
2022-10-01T12:22:42.177Z,14.85
2022-10-01T12:26:02.684Z,14.73
2022-10-01T12:29:13.002Z,14.65
2022-10-01T12:32:33.821Z,14.63
2022-10-01T12:35:56.592Z,14.45
2022-10-01T12:38:58.292Z,13.92
2022-10-01T12:42:30.242Z,14.12
2022-10-01T12:45:56.283Z,14.55
2022-10-01T12:49:02.794Z,14.56
2022-10-01T12:52:23.266Z,14.89
2022-10-01T12:56:07.270Z,14.78
2022-10-01T12:59:11.876Z,14.59
2022-10-01T13:02:34.322Z,14.56
2022-10-01T13:05:48.120Z,14.44
2022-10-01T13:09:03.525Z,14.30
2022-10-01T13:12:21.556Z,14.35
2022-10-01T13:15:37.765Z,14.74
2022-10-01T13:19:14.568Z,15.19
2022-10-01T13:22:38.353Z,15.04
2022-10-01T13:25:51.834Z,14.83
2022-10-01T13:29:19.012Z,14.61
2022-10-01T13:32:30.279Z,14.45
2022-10-01T13:35:39.411Z,14.48
2022-10-01T13:38:44.067Z,14.56
2022-10-01T13:41:45.949Z,14.48
2022-10-01T13:44:56.907Z,14.31
2022-10-01T13:48:10.738Z,14.14
2022-10-01T13:51:14.730Z,14.43
2022-10-01T13:54:29.882Z,14.31
2022-10-01T13:57:34.529Z,14.50
2022-10-01T14:00:53.485Z,14.66
2022-10-01T14:04:16.124Z,14.51
2022-10-01T14:07:32.732Z,14.62
2022-10-01T14:10:58.049Z,14.30
2022-10-01T14:14:30.438Z,13.94
2022-10-01T14:17:33.318Z,14.07
2022-10-01T14:20:58.208Z,14.07
2022-10-01T14:24:08.879Z,14.15
2022-10-01T14:27:26.199Z,14.04
2022-10-01T14:30:45.749Z,13.95
2022-10-01T14:34:29.085Z,13.83
2022-10-01T14:37:31.011Z,13.66
2022-10-01T14:40:39.442Z,13.64
2022-10-01T14:43:41.179Z,13.59
2022-10-01T14:46:42.926Z,13.62
2022-10-01T14:49:44.852Z,13.43
2022-10-01T14:52:51.064Z,13.47
2022-10-01T14:55:54.397Z,13.54
2022-10-01T14:59:05.399Z,13.47
2022-10-01T15:02:19.875Z,13.40
2022-10-01T15:05:26.339Z,13.32
2022-10-01T15:08:43.163Z,13.26
2022-10-01T15:11:48.544Z,13.27
2022-10-01T15:14:54.253Z,13.18
2022-10-01T15:17:56.057Z,13.10
2022-10-01T15:21:06.344Z,13.01
2022-10-01T15:24:20.411Z,12.91
2022-10-01T15:27:22.718Z,12.80
2022-10-01T15:30:27.084Z,12.73
2022-10-01T15:33:37.911Z,12.71
2022-10-01T15:36:41.103Z,12.67
2022-10-01T15:39:48.860Z,12.53
2022-10-01T15:43:08.881Z,12.34
2022-10-01T15:46:16.883Z,12.28
2022-10-01T15:49:24.926Z,12.23
2022-10-01T15:52:45.724Z,12.23
2022-10-01T15:55:53.094Z,12.16
2022-10-01T15:59:03.650Z,12.02
2022-10-01T16:02:14.771Z,11.81
2022-10-01T16:05:20.088Z,11.84
2022-10-01T16:08:33.844Z,11.94
2022-10-01T16:11:51.891Z,11.88
2022-10-01T16:14:58.524Z,11.83
2022-10-01T16:18:04.984Z,11.76
2022-10-01T16:21:11.904Z,11.71
2022-10-01T16:24:28.467Z,11.62
2022-10-01T16:27:48.441Z,11.52
2022-10-01T16:30:51.322Z,11.45
2022-10-01T16:33:53.170Z,11.33
2022-10-01T16:36:56.087Z,11.27
2022-10-01T16:39:57.840Z,11.18
2022-10-01T16:43:00.753Z,11.10
2022-10-01T16:46:02.576Z,10.99
2022-10-01T16:49:15.813Z,10.95
2022-10-01T16:52:17.575Z,10.88
2022-10-01T16:55:23.602Z,10.84
2022-10-01T16:58:25.643Z,10.79
2022-10-01T17:01:28.115Z,10.70
2022-10-01T17:04:33.976Z,10.66
2022-10-01T17:07:35.963Z,10.60
2022-10-01T17:10:47.591Z,10.57
2022-10-01T17:13:49.313Z,10.54
2022-10-01T17:16:53.411Z,10.50
2022-10-01T17:19:55.343Z,10.47
2022-10-01T17:22:58.308Z,10.41
2022-10-01T17:26:00.001Z,10.31
2022-10-01T17:29:01.855Z,10.24
2022-10-01T17:32:03.697Z,10.15
2022-10-01T17:35:07.069Z,10.10
2022-10-01T17:38:09.763Z,10.05
2022-10-01T17:41:11.564Z,9.93
2022-10-01T17:44:13.269Z,9.77
2022-10-01T17:47:15.125Z,9.67
2022-10-01T17:50:17.514Z,9.61
2022-10-01T17:53:19.408Z,9.53
2022-10-01T17:56:21.272Z,9.42
2022-10-01T17:59:22.969Z,9.29
2022-10-01T18:02:40.854Z,9.19
2022-10-01T18:05:44.687Z,9.09
2022-10-01T18:09:01.465Z,9.00
2022-10-01T18:12:04.314Z,8.90
2022-10-01T18:15:06.614Z,8.92
2022-10-01T18:19:30.938Z,8.86
2022-10-01T18:21:32.282Z,8.78
2022-10-01T18:24:34.550Z,8.74
2022-10-01T18:27:36.260Z,8.68
2022-10-01T18:30:37.983Z,8.60
2022-10-01T18:33:49.328Z,8.55
2022-10-01T18:36:55.985Z,8.47
2022-10-01T18:40:41.064Z,8.44
2022-10-01T18:43:43.629Z,8.36
2022-10-01T18:46:45.210Z,8.30
2022-10-01T18:50:03.273Z,8.26
2022-10-01T18:53:07.888Z,8.20
2022-10-01T18:56:22.495Z,8.18
2022-10-01T18:59:46.525Z,8.24
2022-10-01T19:03:23.661Z,8.17
2022-10-01T19:07:08.502Z,8.06
2022-10-01T19:10:26.330Z,7.94
2022-10-01T19:14:23.027Z,7.85
2022-10-01T19:17:52.866Z,7.76
2022-10-01T19:21:36.347Z,7.71
2022-10-01T19:24:57.893Z,7.64
2022-10-01T19:28:05.867Z,7.53
2022-10-01T19:31:29.834Z,7.46
2022-10-01T19:34:41.496Z,7.38
2022-10-01T19:37:49.181Z,7.29
2022-10-01T19:41:04.483Z,7.27
2022-10-01T19:44:17.534Z,7.19
2022-10-01T19:47:36.692Z,7.19
2022-10-01T19:50:43.616Z,7.13
2022-10-01T19:53:50.142Z,7.08
2022-10-01T19:56:55.200Z,7.07
2022-10-01T19:59:59.691Z,7.03
2022-10-01T20:03:11.283Z,6.95
2022-10-01T20:06:29.621Z,6.99
2022-10-01T20:09:41.445Z,7.02
2022-10-01T20:13:11.034Z,7.07
2022-10-01T20:16:30.248Z,7.27
2022-10-01T20:19:42.480Z,7.36
2022-10-01T20:23:25.932Z,7.44
2022-10-01T20:26:48.238Z,7.44
2022-10-01T20:30:06.960Z,7.52
2022-10-01T20:33:26.823Z,7.57
2022-10-01T20:36:58.528Z,7.63
2022-10-01T20:40:26.456Z,7.70
2022-10-01T20:43:35.192Z,7.80
2022-10-01T20:46:46.799Z,7.79
2022-10-01T20:50:09.137Z,7.82
2022-10-01T20:53:17.585Z,7.87
2022-10-01T20:56:26.147Z,7.82
2022-10-01T20:59:35.874Z,7.77
2022-10-01T21:02:43.975Z,7.81
2022-10-01T21:05:53.613Z,7.78
2022-10-01T21:08:59.473Z,7.85
2022-10-01T21:12:09.860Z,7.94
2022-10-01T21:15:14.832Z,8.01
2022-10-01T21:18:41.615Z,8.08
2022-10-01T21:21:55.178Z,8.24
2022-10-01T21:25:35.453Z,8.55
2022-10-01T21:28:40.038Z,8.46
2022-10-01T21:31:51.159Z,8.57
2022-10-01T21:35:01.872Z,8.62
2022-10-01T21:38:11.633Z,8.66
2022-10-01T21:41:41.807Z,8.68
2022-10-01T21:45:05.593Z,8.66
2022-10-01T21:48:58.098Z,8.63
2022-10-01T21:52:29.144Z,8.57
2022-10-01T21:56:08.348Z,8.60
2022-10-01T21:59:47.571Z,8.57
2022-10-01T22:02:52.126Z,8.50
2022-10-01T22:06:03.132Z,8.46
2022-10-01T22:09:07.520Z,8.46
2022-10-01T22:12:10.993Z,8.39
2022-10-01T22:15:35.513Z,8.33
2022-10-01T22:18:43.368Z,8.31
2022-10-01T22:21:47.893Z,8.16
2022-10-01T22:24:52.483Z,8.11
2022-10-01T22:28:02.070Z,8.11
2022-10-01T22:31:09.219Z,8.11
2022-10-01T22:34:28.028Z,8.03
2022-10-01T22:37:42.864Z,7.91
2022-10-01T22:41:27.397Z,7.83
2022-10-01T22:44:29.590Z,7.82
2022-10-01T22:47:52.067Z,7.83
2022-10-01T22:51:09.931Z,7.94
2022-10-01T22:54:47.740Z,7.94
2022-10-01T22:57:57.117Z,7.95
2022-10-01T23:01:39.532Z,8.00
2022-10-01T23:05:04.860Z,7.98
2022-10-01T23:08:57.466Z,8.09
2022-10-01T23:12:18.435Z,8.25
2022-10-01T23:15:28.261Z,8.55
2022-10-01T23:18:42.668Z,8.72
2022-10-01T23:22:02.116Z,8.80
2022-10-01T23:25:23.751Z,8.98
2022-10-01T23:28:34.682Z,9.05
2022-10-01T23:31:51.239Z,9.07
2022-10-01T23:35:20.057Z,9.08
2022-10-01T23:38:30.789Z,9.17
2022-10-01T23:41:43.746Z,9.19
2022-10-01T23:45:17.028Z,9.17
2022-10-01T23:48:27.043Z,9.09
2022-10-01T23:51:43.080Z,9.07
2022-10-01T23:54:50.749Z,9.07
2022-10-01T23:57:58.633Z,9.07
